createdAt,value
2022-08-21T00:02:29.062Z,39.05
2022-08-21T00:04:58.747Z,39.33
2022-08-21T00:07:28.607Z,34.78
2022-08-21T00:09:58.544Z,35.95
2022-08-21T00:12:28.668Z,40.40
2022-08-21T00:14:58.723Z,34.88
2022-08-21T00:17:30.232Z,38.85
2022-08-21T00:20:00.178Z,36.97
2022-08-21T00:22:29.905Z,37.15
2022-08-21T00:24:59.473Z,37.88
2022-08-21T00:27:29.259Z,41.78
2022-08-21T00:29:59.235Z,40.92
2022-08-21T00:32:29.503Z,38.22
2022-08-21T00:34:59.346Z,36.95
2022-08-21T00:37:30.484Z,36.13
2022-08-21T00:40:01.659Z,37.03
2022-08-21T00:42:32.679Z,37.75
2022-08-21T00:45:02.538Z,39.65
2022-08-21T00:47:32.249Z,37.63
2022-08-21T00:50:01.951Z,35.55
2022-08-21T00:52:32.244Z,37.35
2022-08-21T00:55:02.057Z,36.83
2022-08-21T00:57:34.968Z,36.97
2022-08-21T01:00:04.991Z,37.22
2022-08-21T01:02:35.486Z,39.92
2022-08-21T01:05:05.212Z,34.08
2022-08-21T01:07:35.010Z,35.95
2022-08-21T01:10:04.991Z,37.67
2022-08-21T01:12:35.052Z,39.75
2022-08-21T01:15:05.048Z,37.30
2022-08-21T01:17:34.951Z,37.05
2022-08-21T01:20:06.695Z,36.95
2022-08-21T01:22:36.541Z,37.13
2022-08-21T01:25:07.616Z,37.17
2022-08-21T01:27:37.708Z,35.72
2022-08-21T01:30:11.566Z,35.58
2022-08-21T01:32:41.238Z,34.88
2022-08-21T01:35:11.017Z,35.25
2022-08-21T01:37:40.732Z,37.58
2022-08-21T01:40:10.603Z,35.35
2022-08-21T01:42:42.187Z,33.78
2022-08-21T01:45:12.038Z,32.10
2022-08-21T01:47:41.966Z,30.77
2022-08-21T01:50:12.507Z,31.33
2022-08-21T01:52:42.168Z,31.52
2022-08-21T01:55:11.980Z,32.67
2022-08-21T01:57:41.700Z,31.75
2022-08-21T02:00:13.324Z,33.15
2022-08-21T02:02:43.487Z,29.17
2022-08-21T02:05:13.594Z,32.25
2022-08-21T02:07:53.495Z,33.47
2022-08-21T02:10:24.845Z,31.75
2022-08-21T02:12:54.640Z,30.15
2022-08-21T02:15:24.354Z,29.42
2022-08-21T02:17:55.200Z,32.78
2022-08-21T02:20:29.781Z,31.63
2022-08-21T02:22:59.734Z,31.63
2022-08-21T02:25:30.082Z,31.52
2022-08-21T02:27:59.923Z,31.48
2022-08-21T02:30:30.859Z,34.35
2022-08-21T02:33:00.583Z,32.50
2022-08-21T02:35:30.172Z,31.08
2022-08-21T02:38:01.660Z,30.38
2022-08-21T02:40:34.703Z,31.45
2022-08-21T02:43:04.811Z,32.47
2022-08-21T02:45:34.617Z,30.58
2022-08-21T02:48:05.538Z,32.47
2022-08-21T02:50:36.084Z,35.97
2022-08-21T02:53:05.738Z,29.42
2022-08-21T02:55:35.497Z,29.98
2022-08-21T02:58:05.205Z,31.30
2022-08-21T03:00:35.174Z,31.13
2022-08-21T03:03:05.635Z,28.17
2022-08-21T03:05:35.583Z,29.30
2022-08-21T03:08:05.770Z,28.90
2022-08-21T03:10:39.189Z,31.73
2022-08-21T03:13:09.010Z,29.70
2022-08-21T03:15:41.529Z,31.25
2022-08-21T03:18:11.205Z,29.92
2022-08-21T03:20:42.340Z,31.83
2022-08-21T03:23:13.257Z,31.20
2022-08-21T03:25:44.398Z,31.10
2022-08-21T03:28:16.462Z,35.00
2022-08-21T03:30:46.965Z,28.55
2022-08-21T03:33:17.437Z,26.52
2022-08-21T03:35:51.422Z,26.80
2022-08-21T03:38:25.981Z,27.85
2022-08-21T03:40:56.855Z,29.40
2022-08-21T03:43:26.673Z,28.90
2022-08-21T03:46:01.074Z,27.48
2022-08-21T03:48:31.367Z,27.08
2022-08-21T03:51:01.225Z,29.45
2022-08-21T03:53:31.142Z,28.00
2022-08-21T03:56:00.830Z,26.92
2022-08-21T03:58:30.934Z,28.92
2022-08-21T04:01:02.193Z,28.65
2022-08-21T04:03:31.926Z,30.80
2022-08-21T04:06:01.684Z,26.98
2022-08-21T04:08:31.298Z,28.75
2022-08-21T04:11:01.062Z,28.58
2022-08-21T04:13:30.614Z,28.70
2022-08-21T04:16:03.436Z,28.92
2022-08-21T04:18:35.283Z,28.73
2022-08-21T04:21:06.540Z,29.85
2022-08-21T04:23:40.665Z,28.50
2022-08-21T04:26:10.374Z,29.73
2022-08-21T04:28:39.857Z,30.27
2022-08-21T04:31:09.412Z,30.02
2022-08-21T04:33:39.127Z,27.70
2022-08-21T04:36:09.288Z,29.85
2022-08-21T04:38:38.895Z,30.50
2022-08-21T04:41:14.643Z,31.85
2022-08-21T04:43:44.990Z,32.08
2022-08-21T04:46:15.230Z,30.58
2022-08-21T04:48:44.852Z,29.55
2022-08-21T04:51:19.512Z,29.98
2022-08-21T04:53:49.246Z,31.17
2022-08-21T04:56:40.552Z,33.55
2022-08-21T04:59:10.646Z,32.83
2022-08-21T05:01:40.284Z,33.25
2022-08-21T05:04:10.822Z,31.92
2022-08-21T05:06:40.580Z,34.13
2022-08-21T05:09:11.629Z,35.97
2022-08-21T05:11:41.227Z,35.30
2022-08-21T05:14:10.953Z,35.63
2022-08-21T05:16:40.654Z,35.78
2022-08-21T05:19:10.236Z,35.40
2022-08-21T05:21:41.637Z,32.42
2022-08-21T05:24:11.329Z,38.72
2022-08-21T05:26:45.520Z,40.40
2022-08-21T05:29:16.719Z,40.92
2022-08-21T05:31:47.931Z,46.97
2022-08-21T05:34:18.150Z,35.53
2022-08-21T05:36:48.715Z,36.25
2022-08-21T05:39:18.360Z,39.05
2022-08-21T05:41:47.994Z,39.90
2022-08-21T05:44:17.606Z,38.67
2022-08-21T05:46:47.227Z,36.95
2022-08-21T05:49:16.716Z,38.83
2022-08-21T05:51:46.324Z,38.33
2022-08-21T05:54:15.951Z,36.80
2022-08-21T05:56:46.929Z,39.50
2022-08-21T05:59:16.430Z,37.78
2022-08-21T06:01:47.644Z,38.03
2022-08-21T06:04:17.254Z,40.88
2022-08-21T06:06:46.788Z,40.25
2022-08-21T06:09:16.469Z,39.53
2022-08-21T06:11:46.146Z,40.75
2022-08-21T06:14:18.201Z,41.85
2022-08-21T06:16:47.673Z,40.60
2022-08-21T06:19:17.226Z,41.22
2022-08-21T06:21:46.818Z,43.60
2022-08-21T06:24:16.502Z,44.45
2022-08-21T06:26:46.104Z,44.28
2022-08-21T06:29:19.309Z,44.60
2022-08-21T06:31:50.867Z,45.42
2022-08-21T06:34:20.595Z,45.03
2022-08-21T06:36:50.254Z,46.13
2022-08-21T06:39:25.341Z,45.45
2022-08-21T06:41:55.769Z,79.03
2022-08-21T06:44:25.564Z,47.80
2022-08-21T06:46:55.258Z,44.80
2022-08-21T06:49:24.827Z,39.97
2022-08-21T06:51:55.648Z,42.15
2022-08-21T06:54:25.181Z,38.70
2022-08-21T06:56:54.849Z,39.30
2022-08-21T06:59:24.647Z,38.55
2022-08-21T07:01:54.258Z,40.15
2022-08-21T07:04:24.024Z,37.25
2022-08-21T07:06:53.739Z,35.38
2022-08-21T07:09:24.829Z,35.60
2022-08-21T07:11:55.163Z,33.17
2022-08-21T07:14:24.784Z,31.58
2022-08-21T07:16:54.353Z,31.80
2022-08-21T07:19:24.019Z,28.55
2022-08-21T07:21:53.974Z,27.05
2022-08-21T07:24:24.413Z,26.65
2022-08-21T07:26:53.977Z,23.60
2022-08-21T07:29:23.514Z,20.27
2022-08-21T07:31:53.330Z,21.85
2022-08-21T07:34:22.847Z,19.38
2022-08-21T07:36:52.462Z,18.45
2022-08-21T07:39:22.001Z,18.95
2022-08-21T07:41:51.577Z,19.15
2022-08-21T07:44:21.134Z,15.75
2022-08-21T07:46:50.747Z,16.25
2022-08-21T07:49:20.235Z,18.58
2022-08-21T07:51:49.901Z,17.52
2022-08-21T07:54:19.564Z,18.90
2022-08-21T07:57:03.067Z,15.60
2022-08-21T07:59:32.508Z,16.45
2022-08-21T08:02:02.034Z,15.63
2022-08-21T08:04:33.795Z,18.88
2022-08-21T08:07:03.362Z,16.20
2022-08-21T08:09:34.052Z,16.33
2022-08-21T08:12:03.634Z,15.00
2022-08-21T08:14:33.637Z,19.73
2022-08-21T08:17:05.091Z,13.52
2022-08-21T08:19:37.363Z,14.57
2022-08-21T08:22:16.787Z,11.95
2022-08-21T08:24:46.325Z,13.20
2022-08-21T08:27:15.923Z,13.13
2022-08-21T08:29:45.840Z,13.20
2022-08-21T08:32:15.628Z,12.90
2022-08-21T08:34:45.814Z,15.70
2022-08-21T08:37:15.505Z,14.77
2022-08-21T08:39:46.140Z,12.48
2022-08-21T08:42:33.119Z,13.35
2022-08-21T08:45:06.736Z,12.98
2022-08-21T08:47:36.681Z,14.88
2022-08-21T08:50:08.056Z,13.60
2022-08-21T08:52:39.171Z,13.93
2022-08-21T08:55:08.901Z,13.80
2022-08-21T08:57:38.502Z,13.65
2022-08-21T09:00:10.651Z,18.40
2022-08-21T09:02:44.052Z,14.00
2022-08-21T09:05:17.374Z,16.48
2022-08-21T09:07:46.866Z,16.23
2022-08-21T09:10:48.550Z,16.58
2022-08-21T09:13:38.875Z,18.40
2022-08-21T09:16:24.227Z,18.27
2022-08-21T09:19:12.247Z,17.55
2022-08-21T09:21:43.309Z,20.90
2022-08-21T09:24:31.217Z,18.55
2022-08-21T09:27:07.528Z,18.10
2022-08-21T09:29:38.405Z,16.23
2022-08-21T09:32:11.924Z,18.02
2022-08-21T09:34:44.008Z,26.73
2022-08-21T09:37:23.800Z,19.25
2022-08-21T09:39:53.590Z,19.98
2022-08-21T09:42:27.628Z,20.00
2022-08-21T09:45:17.120Z,17.15
2022-08-21T09:47:47.979Z,19.23
2022-08-21T09:50:19.049Z,19.35
2022-08-21T09:52:49.826Z,20.30
2022-08-21T09:55:41.764Z,23.13
2022-08-21T09:58:11.456Z,29.33
2022-08-21T10:00:41.154Z,26.92
2022-08-21T10:03:11.726Z,28.80
2022-08-21T10:05:41.354Z,39.67
2022-08-21T10:08:19.807Z,33.10
2022-08-21T10:10:49.325Z,38.17
2022-08-21T10:13:34.704Z,32.55
2022-08-21T10:16:10.277Z,30.30
2022-08-21T10:18:40.064Z,37.58
2022-08-21T10:21:36.179Z,33.83
2022-08-21T10:24:30.869Z,34.13
2022-08-21T10:27:01.354Z,37.17
2022-08-21T10:29:40.078Z,39.67
2022-08-21T10:32:38.753Z,39.92
2022-08-21T10:35:16.563Z,36.15
2022-08-21T10:38:01.514Z,35.45
2022-08-21T10:40:39.876Z,36.92
2022-08-21T10:43:17.772Z,45.55
2022-08-21T10:45:56.732Z,40.85
2022-08-21T10:48:26.387Z,42.85
2022-08-21T10:50:57.958Z,42.92
2022-08-21T10:53:54.071Z,48.90
2022-08-21T10:56:25.793Z,49.88
2022-08-21T10:59:04.984Z,52.42
2022-08-21T11:01:36.676Z,62.75
2022-08-21T11:04:49.371Z,54.22
2022-08-21T11:07:22.700Z,47.25
2022-08-21T11:09:52.199Z,49.22
2022-08-21T11:12:21.775Z,71.00
2022-08-21T11:15:06.930Z,57.00
2022-08-21T11:17:45.941Z,50.10
2022-08-21T11:20:40.202Z,42.70
2022-08-21T11:23:15.670Z,51.15
2022-08-21T11:25:46.661Z,47.63
2022-08-21T11:28:25.532Z,48.80
2022-08-21T11:30:55.106Z,44.70
2022-08-21T11:33:30.719Z,48.25
2022-08-21T11:36:11.450Z,45.10
2022-08-21T11:38:45.431Z,46.85
2022-08-21T11:41:21.213Z,47.25
2022-08-21T11:43:57.595Z,51.40
2022-08-21T11:46:38.425Z,54.95
2022-08-21T11:49:12.133Z,52.28
2022-08-21T11:51:45.372Z,58.38
2022-08-21T11:54:20.349Z,57.47
2022-08-21T11:56:51.787Z,60.45
2022-08-21T11:59:23.198Z,64.22
2022-08-21T12:01:53.488Z,66.45
2022-08-21T12:04:30.910Z,70.15
2022-08-21T12:07:00.535Z,66.90
2022-08-21T12:09:42.354Z,71.38
2022-08-21T12:12:27.266Z,68.38
2022-08-21T12:15:07.885Z,76.10
2022-08-21T12:17:41.447Z,75.07
2022-08-21T12:20:29.947Z,73.72
2022-08-21T12:23:12.787Z,68.85
2022-08-21T12:25:50.891Z,71.32
2022-08-21T12:28:25.833Z,67.75
2022-08-21T12:30:58.098Z,72.72
2022-08-21T12:33:41.700Z,71.32
2022-08-21T12:36:11.440Z,79.68
2022-08-21T12:39:10.305Z,71.97
2022-08-21T12:41:50.895Z,80.97
2022-08-21T12:44:21.427Z,78.82
2022-08-21T12:47:01.460Z,78.35
2022-08-21T12:49:36.821Z,76.28
2022-08-21T12:52:13.152Z,76.80
2022-08-21T12:54:44.329Z,82.97
2022-08-21T12:57:21.750Z,79.45
2022-08-21T12:59:55.622Z,81.60
2022-08-21T13:02:35.717Z,80.25
2022-08-21T13:05:08.629Z,80.00
2022-08-21T13:07:38.560Z,78.80
2022-08-21T13:10:17.645Z,85.38
2022-08-21T13:12:47.790Z,80.38
2022-08-21T13:15:17.539Z,82.97
2022-08-21T13:17:48.775Z,77.25
2022-08-21T13:20:26.489Z,85.38
2022-08-21T13:22:56.310Z,76.40
2022-08-21T13:25:30.819Z,82.68
2022-08-21T13:28:11.641Z,81.25
2022-08-21T13:30:48.819Z,85.75
2022-08-21T13:33:19.008Z,87.10
2022-08-21T13:36:01.575Z,91.15
2022-08-21T13:38:32.471Z,90.68
2022-08-21T13:41:03.402Z,94.00
2022-08-21T13:43:35.022Z,104.75
2022-08-21T13:46:05.312Z,94.82
2022-08-21T13:48:35.923Z,96.15
2022-08-21T13:51:06.295Z,99.15
2022-08-21T13:53:36.125Z,94.65
2022-08-21T13:56:07.054Z,100.35
2022-08-21T13:58:46.206Z,102.78
2022-08-21T14:03:49.065Z,102.60
2022-08-21T14:06:20.723Z,100.53
2022-08-21T14:08:57.776Z,104.55
2022-08-21T14:11:28.182Z,102.38
2022-08-21T14:13:58.070Z,100.72
2022-08-21T14:16:29.105Z,105.10
2022-08-21T14:19:04.904Z,104.63
2022-08-21T14:21:41.452Z,108.15
2022-08-21T14:24:15.762Z,111.35
2022-08-21T14:27:00.785Z,104.57
2022-08-21T14:29:33.083Z,107.07
2022-08-21T14:32:04.865Z,110.47
2022-08-21T14:34:46.234Z,108.70
2022-08-21T14:37:16.473Z,110.63
2022-08-21T14:39:47.145Z,110.45
2022-08-21T14:42:16.818Z,110.85
2022-08-21T14:44:46.380Z,107.90
2022-08-21T14:47:16.071Z,111.53
2022-08-21T14:49:45.636Z,107.78
2022-08-21T14:52:15.206Z,109.57
2022-08-21T14:54:44.817Z,107.35
2022-08-21T14:57:14.959Z,112.32
2022-08-21T14:59:45.281Z,101.10
2022-08-21T15:02:14.788Z,102.47
2022-08-21T15:04:44.851Z,100.68
2022-08-21T15:07:14.393Z,109.40
2022-08-21T15:09:43.980Z,104.05
2022-08-21T15:12:13.539Z,99.88
2022-08-21T15:14:43.194Z,99.53
2022-08-21T15:17:12.992Z,101.25
2022-08-21T15:19:42.542Z,103.30
2022-08-21T15:22:18.742Z,104.30
2022-08-21T15:24:49.355Z,104.10
2022-08-21T15:27:19.513Z,102.28
2022-08-21T15:29:49.159Z,102.57
2022-08-21T15:32:24.653Z,105.65
2022-08-21T15:34:54.566Z,106.05
2022-08-21T15:37:24.385Z,105.15
2022-08-21T15:39:54.773Z,108.85
2022-08-21T15:42:24.522Z,107.20
2022-08-21T15:44:54.066Z,101.40
2022-08-21T15:47:25.275Z,108.72
2022-08-21T15:49:55.043Z,107.47
2022-08-21T15:52:25.256Z,105.47
2022-08-21T15:54:55.077Z,99.53
2022-08-21T15:57:26.010Z,107.55
2022-08-21T15:59:59.774Z,102.88
2022-08-21T16:02:30.243Z,100.68
2022-08-21T16:05:00.070Z,98.05
2022-08-21T16:07:29.776Z,95.28
2022-08-21T16:09:59.607Z,98.63
2022-08-21T16:12:30.711Z,93.75
2022-08-21T16:15:00.483Z,93.80
2022-08-21T16:17:31.747Z,96.30
2022-08-21T16:20:02.037Z,93.43
2022-08-21T16:22:41.276Z,94.10
2022-08-21T16:25:14.047Z,94.45
2022-08-21T16:27:44.340Z,99.28
2022-08-21T16:30:14.297Z,97.50
2022-08-21T16:32:44.267Z,100.05
2022-08-21T16:35:15.019Z,106.28
2022-08-21T16:37:44.981Z,108.18
2022-08-21T16:40:14.743Z,104.60
2022-08-21T16:42:44.627Z,105.00
2022-08-21T16:45:15.266Z,111.55
2022-08-21T16:47:45.985Z,115.50
2022-08-21T16:50:20.390Z,109.22
2022-08-21T16:52:50.384Z,108.97
2022-08-21T16:55:20.089Z,115.68
2022-08-21T16:57:49.767Z,120.03
2022-08-21T17:00:19.568Z,123.15
2022-08-21T17:02:50.353Z,114.97
2022-08-21T17:05:20.185Z,117.07
2022-08-21T17:07:49.930Z,113.47
2022-08-21T17:10:20.596Z,110.22
2022-08-21T17:12:52.969Z,112.50
2022-08-21T17:15:24.113Z,118.30
2022-08-21T17:17:53.867Z,114.25
2022-08-21T17:20:44.145Z,111.57
2022-08-21T17:23:13.920Z,107.95
2022-08-21T17:25:44.973Z,113.03
2022-08-21T17:28:18.922Z,109.55
2022-08-21T17:30:48.574Z,113.35
2022-08-21T17:33:18.352Z,117.68
2022-08-21T17:35:47.987Z,113.93
2022-08-21T17:38:17.517Z,111.07
2022-08-21T17:40:48.753Z,109.35
2022-08-21T17:43:18.570Z,106.28
2022-08-21T17:45:48.439Z,104.38
2022-08-21T17:48:17.995Z,107.93
2022-08-21T17:50:54.941Z,101.25
2022-08-21T17:53:24.600Z,102.00
2022-08-21T17:55:54.259Z,99.90
2022-08-21T17:58:23.836Z,100.35
2022-08-21T18:00:53.671Z,100.53
2022-08-21T18:03:25.027Z,102.68
2022-08-21T18:05:57.334Z,106.32
2022-08-21T18:08:26.983Z,101.25
2022-08-21T18:10:56.559Z,94.10
2022-08-21T18:13:28.499Z,101.32
2022-08-21T18:15:58.263Z,100.20
2022-08-21T18:18:27.783Z,96.60
2022-08-21T18:21:00.509Z,101.15
2022-08-21T18:23:43.971Z,103.22
2022-08-21T18:26:15.859Z,100.82
2022-08-21T18:28:45.609Z,104.53
2022-08-21T18:31:15.181Z,104.85
2022-08-21T18:33:57.812Z,110.38
2022-08-21T18:36:31.397Z,104.72
2022-08-21T18:39:25.661Z,105.32
2022-08-21T18:41:50.939Z,105.20
2022-08-21T18:44:20.925Z,112.28
2022-08-21T18:47:09.593Z,108.57
2022-08-21T18:49:39.312Z,115.05
2022-08-21T18:52:17.776Z,109.78
2022-08-21T18:54:50.351Z,109.03
2022-08-21T18:57:20.997Z,100.15
2022-08-21T18:59:50.689Z,114.82
2022-08-21T19:02:20.547Z,117.93
2022-08-21T19:04:50.252Z,110.97
2022-08-21T19:07:21.309Z,118.22
2022-08-21T19:10:14.101Z,116.55
2022-08-21T19:12:41.241Z,112.88
2022-08-21T19:15:13.975Z,109.57
2022-08-21T19:17:44.024Z,117.70
2022-08-21T19:20:16.787Z,120.20
2022-08-21T19:22:54.985Z,107.05
2022-08-21T19:25:33.505Z,108.85
2022-08-21T19:28:19.776Z,109.75
2022-08-21T19:30:53.974Z,103.78
2022-08-21T19:33:28.910Z,108.15
2022-08-21T19:35:58.557Z,111.53
2022-08-21T19:38:28.328Z,118.97
2022-08-21T19:40:58.259Z,114.15
2022-08-21T19:43:29.240Z,115.32
2022-08-21T19:45:59.099Z,112.32
2022-08-21T19:48:28.681Z,111.63
2022-08-21T19:50:58.594Z,114.00
2022-08-21T19:53:28.188Z,109.85
2022-08-21T19:55:57.673Z,108.63
2022-08-21T19:58:36.005Z,110.47
2022-08-21T20:01:05.996Z,109.00
2022-08-21T20:03:53.740Z,106.40
2022-08-21T20:06:24.507Z,105.22
2022-08-21T20:08:54.232Z,106.55
2022-08-21T20:11:27.550Z,106.70
2022-08-21T20:14:01.173Z,102.55
2022-08-21T20:16:30.790Z,111.70
2022-08-21T20:19:00.649Z,103.25
2022-08-21T20:21:30.287Z,105.05
2022-08-21T20:24:14.629Z,110.05
2022-08-21T20:29:38.970Z,107.63
2022-08-21T20:32:12.055Z,105.97
2022-08-21T20:34:45.165Z,109.18
2022-08-21T20:37:22.106Z,108.22
2022-08-21T20:40:08.148Z,113.40
2022-08-21T20:42:37.765Z,114.25
2022-08-21T20:45:08.096Z,113.25
2022-08-21T20:47:38.395Z,112.30
2022-08-21T20:50:13.643Z,114.32
2022-08-21T20:52:43.590Z,108.90
2022-08-21T20:55:13.519Z,110.20
2022-08-21T20:57:46.099Z,112.78
2022-08-21T21:00:21.873Z,114.68
2022-08-21T21:03:04.906Z,116.10
2022-08-21T21:05:36.254Z,113.68
2022-08-21T21:08:05.903Z,112.57
2022-08-21T21:10:37.793Z,114.43
2022-08-21T21:13:16.238Z,116.15
2022-08-21T21:15:46.013Z,102.97
2022-08-21T21:18:41.963Z,106.32
2022-08-21T21:21:14.991Z,106.32
2022-08-21T21:23:46.989Z,105.72
2022-08-21T21:26:35.381Z,102.75
2022-08-21T21:29:10.685Z,106.45
2022-08-21T21:31:40.455Z,98.72
2022-08-21T21:34:16.988Z,99.55
2022-08-21T21:36:51.562Z,100.97
2022-08-21T21:39:36.513Z,99.07
2022-08-21T21:42:10.012Z,97.53
2022-08-21T21:44:44.447Z,99.25
2022-08-21T21:47:26.422Z,93.95
2022-08-21T21:50:00.562Z,99.00
2022-08-21T21:52:48.704Z,93.45
2022-08-21T21:55:42.888Z,98.13
2022-08-21T22:01:11.080Z,91.32
2022-08-21T22:03:53.123Z,90.25
2022-08-21T22:06:43.008Z,90.95
2022-08-21T22:09:23.963Z,88.90
2022-08-21T22:12:09.115Z,88.22
2022-08-21T22:14:41.067Z,86.72
2022-08-21T22:17:28.939Z,85.70
2022-08-21T22:19:59.020Z,84.13
2022-08-21T22:22:30.305Z,85.25
2022-08-21T22:25:07.006Z,83.30
2022-08-21T22:27:37.640Z,84.88
2022-08-21T22:30:09.426Z,81.35
2022-08-21T22:35:31.636Z,77.15
2022-08-21T22:38:01.683Z,77.13
2022-08-21T22:40:32.513Z,79.43
2022-08-21T22:43:08.831Z,77.90
2022-08-21T22:45:58.771Z,76.45
2022-08-21T22:48:32.093Z,69.32
2022-08-21T22:51:01.871Z,64.68
2022-08-21T22:53:31.809Z,68.03
2022-08-21T22:56:02.587Z,66.10
2022-08-21T22:58:36.452Z,61.53
2022-08-21T23:01:29.058Z,66.63
2022-08-21T23:03:59.469Z,58.15
2022-08-21T23:06:28.974Z,57.63
2022-08-21T23:09:00.318Z,56.83
2022-08-21T23:11:31.904Z,52.65
2022-08-21T23:14:01.877Z,51.33
2022-08-21T23:16:43.057Z,44.53
2022-08-21T23:19:37.939Z,44.58
2022-08-21T23:22:28.418Z,38.05
2022-08-21T23:25:17.852Z,38.72
2022-08-21T23:27:50.495Z,36.20
2022-08-21T23:30:21.603Z,33.88
2022-08-21T23:33:09.698Z,32.35
2022-08-21T23:36:02.821Z,37.05
2022-08-21T23:38:38.186Z,35.78
2022-08-21T23:41:34.335Z,28.27
2022-08-21T23:44:46.485Z,30.17
2022-08-21T23:47:25.023Z,29.40
2022-08-21T23:53:09.452Z,28.80
2022-08-21T23:55:42.531Z,29.65
2022-08-21T23:58:12.085Z,26.33
